createdAt,value
2023-05-29T00:01:25.640Z,16.88
2023-05-29T00:04:30.768Z,16.95
2023-05-29T00:07:34.776Z,16.66
2023-05-29T00:10:38.503Z,16.52
2023-05-29T00:13:42.848Z,16.35
2023-05-29T00:16:48.004Z,16.36
2023-05-29T00:19:53.791Z,16.70
2023-05-29T00:22:58.584Z,16.82
2023-05-29T00:26:02.620Z,16.90
2023-05-29T00:29:06.620Z,16.82
2023-05-29T00:32:11.788Z,16.76
2023-05-29T00:35:17.279Z,16.79
2023-05-29T00:38:21.428Z,16.57
2023-05-29T00:41:27.349Z,16.58
2023-05-29T00:44:31.496Z,16.73
2023-05-29T00:47:35.791Z,16.69
2023-05-29T00:50:41.875Z,16.85
2023-05-29T00:53:47.342Z,16.71
2023-05-29T00:56:51.705Z,16.72
2023-05-29T00:59:55.807Z,16.34
2023-05-29T01:03:00.860Z,16.38
2023-05-29T01:06:06.240Z,16.32
2023-05-29T01:09:10.742Z,16.47
2023-05-29T01:12:25.625Z,16.50
2023-05-29T01:15:39.949Z,16.53
2023-05-29T01:18:54.064Z,16.63
2023-05-29T01:22:15.370Z,16.73
2023-05-29T01:25:24.042Z,16.39
2023-05-29T01:28:34.681Z,16.41
2023-05-29T01:31:59.034Z,16.48
2023-05-29T01:35:03.132Z,16.48
2023-05-29T01:38:06.752Z,16.34
2023-05-29T01:41:11.884Z,16.45
2023-05-29T01:44:19.050Z,16.47
2023-05-29T01:47:25.274Z,16.51
2023-05-29T01:50:30.997Z,16.32
2023-05-29T01:53:34.988Z,16.25
2023-05-29T01:56:39.233Z,16.35
2023-05-29T01:59:45.988Z,16.46
2023-05-29T02:02:49.640Z,16.47
2023-05-29T02:05:53.625Z,16.41
2023-05-29T02:08:57.315Z,16.31
2023-05-29T02:12:02.040Z,16.09
2023-05-29T02:15:08.971Z,15.35
2023-05-29T02:18:15.584Z,15.57
2023-05-29T02:21:19.268Z,15.53
2023-05-29T02:24:42.236Z,15.28
2023-05-29T02:27:46.035Z,15.21
2023-05-29T02:30:54.025Z,15.43
2023-05-29T02:33:58.195Z,15.67
2023-05-29T02:37:02.455Z,15.80
2023-05-29T02:40:07.749Z,15.88
2023-05-29T02:43:14.863Z,15.86
2023-05-29T02:46:21.271Z,16.07
2023-05-29T02:49:26.894Z,16.00
2023-05-29T02:52:31.488Z,16.13
2023-05-29T02:55:37.065Z,16.14
2023-05-29T02:58:40.977Z,16.21
2023-05-29T03:01:48.803Z,16.17
2023-05-29T03:04:53.364Z,16.22
2023-05-29T03:07:57.454Z,16.29
2023-05-29T03:11:01.655Z,16.16
2023-05-29T03:14:05.931Z,16.22
2023-05-29T03:17:29.150Z,16.16
2023-05-29T03:20:34.357Z,15.94
2023-05-29T03:23:38.510Z,15.91
2023-05-29T03:26:42.685Z,16.03
2023-05-29T03:29:47.216Z,15.98
2023-05-29T03:32:52.577Z,16.03
2023-05-29T03:36:02.564Z,16.09
2023-05-29T03:39:07.591Z,16.14
2023-05-29T03:42:11.165Z,15.95
2023-05-29T03:45:15.032Z,16.11
2023-05-29T03:48:20.590Z,16.26
2023-05-29T03:51:25.843Z,16.21
2023-05-29T03:54:32.198Z,16.19
2023-05-29T03:57:38.225Z,15.80
2023-05-29T04:00:41.925Z,15.88
2023-05-29T04:03:48.719Z,15.57
2023-05-29T04:06:52.589Z,15.32
2023-05-29T04:09:56.563Z,15.55
2023-05-29T04:13:00.194Z,15.52
2023-05-29T04:16:04.021Z,15.54
2023-05-29T04:19:09.611Z,15.62
2023-05-29T04:22:14.316Z,15.65
2023-05-29T04:25:19.158Z,15.83
2023-05-29T04:28:24.737Z,15.95
2023-05-29T04:31:29.462Z,16.05
2023-05-29T04:34:35.534Z,16.14
2023-05-29T04:37:39.539Z,16.20
2023-05-29T04:40:45.628Z,15.97
2023-05-29T04:43:53.517Z,15.77
2023-05-29T04:46:58.929Z,15.95
2023-05-29T04:50:04.202Z,16.14
2023-05-29T04:53:08.532Z,16.09
2023-05-29T04:56:12.602Z,16.17
2023-05-29T04:59:16.741Z,16.14
2023-05-29T05:02:20.729Z,16.35
2023-05-29T05:05:26.218Z,16.33
2023-05-29T05:08:34.729Z,16.25
2023-05-29T05:11:38.953Z,16.54
2023-05-29T05:14:44.545Z,16.75
2023-05-29T05:17:49.032Z,16.78
2023-05-29T05:20:54.481Z,16.72
2023-05-29T05:24:17.521Z,16.97
2023-05-29T05:27:21.240Z,17.23
2023-05-29T05:30:25.209Z,17.45
2023-05-29T05:33:28.695Z,17.65
2023-05-29T05:36:34.071Z,18.06
2023-05-29T05:39:46.554Z,17.85
2023-05-29T05:42:50.773Z,18.10
2023-05-29T05:45:57.999Z,18.21
2023-05-29T05:49:03.066Z,18.38
2023-05-29T05:52:11.328Z,18.55
2023-05-29T05:55:15.419Z,18.77
2023-05-29T05:58:20.110Z,18.91
2023-05-29T06:01:24.711Z,19.09
2023-05-29T06:04:28.693Z,19.26
2023-05-29T06:07:34.205Z,19.28
2023-05-29T06:10:38.797Z,19.43
2023-05-29T06:13:43.457Z,19.38
2023-05-29T06:16:57.485Z,19.53
2023-05-29T06:20:03.286Z,19.72
2023-05-29T06:23:08.440Z,19.66
2023-05-29T06:26:15.038Z,19.84
2023-05-29T06:29:19.031Z,20.13
2023-05-29T06:32:23.868Z,20.29
2023-05-29T06:35:28.821Z,20.35
2023-05-29T06:38:38.862Z,20.77
2023-05-29T06:41:42.949Z,20.90
2023-05-29T06:44:49.711Z,20.88
2023-05-29T06:47:53.683Z,21.03
2023-05-29T06:50:57.914Z,21.32
2023-05-29T06:54:29.217Z,21.55
2023-05-29T06:57:34.243Z,21.63
2023-05-29T07:00:41.356Z,21.79
2023-05-29T07:04:25.498Z,21.70
2023-05-29T07:07:29.204Z,21.84
2023-05-29T07:10:37.625Z,22.05
2023-05-29T07:13:50.633Z,21.85
2023-05-29T07:16:54.725Z,22.24
2023-05-29T07:19:58.922Z,22.27
2023-05-29T07:23:03.403Z,22.20
2023-05-29T07:26:08.830Z,22.51
2023-05-29T07:29:13.355Z,22.73
2023-05-29T07:32:17.807Z,22.82
2023-05-29T07:35:22.130Z,23.08
2023-05-29T07:38:26.301Z,23.16
2023-05-29T07:41:31.710Z,23.16
2023-05-29T07:44:35.633Z,23.49
2023-05-29T07:47:40.101Z,23.81
2023-05-29T07:50:43.912Z,24.92
2023-05-29T07:53:48.270Z,25.52
2023-05-29T07:56:56.146Z,25.42
2023-05-29T08:00:01.302Z,25.40
2023-05-29T08:03:08.232Z,25.58
2023-05-29T08:06:33.748Z,25.98
2023-05-29T08:09:37.916Z,25.60
2023-05-29T08:12:43.114Z,25.62
2023-05-29T08:15:46.790Z,25.29
2023-05-29T08:18:50.697Z,25.09
2023-05-29T08:21:54.768Z,25.19
2023-05-29T08:24:58.891Z,25.30
2023-05-29T08:28:04.113Z,25.38
2023-05-29T08:31:08.243Z,25.30
2023-05-29T08:34:12.035Z,25.40
2023-05-29T08:37:16.089Z,25.55
2023-05-29T08:40:20.081Z,25.40
2023-05-29T08:43:26.818Z,25.37
2023-05-29T08:46:31.387Z,25.48
2023-05-29T08:49:45.254Z,25.31
2023-05-29T08:52:49.630Z,25.11
2023-05-29T08:55:56.818Z,24.99
2023-05-29T08:59:05.840Z,24.85
2023-05-29T09:02:28.405Z,24.91
2023-05-29T09:05:32.089Z,24.71
2023-05-29T09:08:36.624Z,24.71
2023-05-29T09:11:40.346Z,24.91
2023-05-29T09:14:47.535Z,24.96
2023-05-29T09:17:55.502Z,24.87
2023-05-29T09:21:02.384Z,24.73
2023-05-29T09:24:07.604Z,24.60
2023-05-29T09:27:14.099Z,24.62
2023-05-29T09:30:40.629Z,24.77
2023-05-29T09:34:05.120Z,24.63
2023-05-29T09:37:15.892Z,24.67
2023-05-29T09:40:23.304Z,24.60
2023-05-29T09:43:27.088Z,24.53
2023-05-29T09:46:36.572Z,24.36
2023-05-29T09:49:44.541Z,24.29
2023-05-29T09:52:48.830Z,24.25
2023-05-29T09:55:54.130Z,24.17
2023-05-29T09:59:00.297Z,24.09
2023-05-29T10:02:08.449Z,23.91
2023-05-29T10:05:12.955Z,23.98
2023-05-29T10:08:18.616Z,24.12
2023-05-29T10:11:26.077Z,24.21
2023-05-29T10:14:33.696Z,24.28
2023-05-29T10:17:41.866Z,24.13
2023-05-29T10:20:47.545Z,24.01
2023-05-29T10:23:53.277Z,24.19
2023-05-29T10:26:57.528Z,24.08
2023-05-29T10:30:08.131Z,24.12
2023-05-29T10:33:31.822Z,24.14
2023-05-29T10:36:41.054Z,24.13
2023-05-29T10:39:44.771Z,23.68
2023-05-29T10:42:51.226Z,23.51
2023-05-29T10:45:55.365Z,23.33
2023-05-29T10:49:01.600Z,23.04
2023-05-29T10:52:07.952Z,22.64
2023-05-29T10:55:13.196Z,22.69
2023-05-29T10:58:25.390Z,22.77
2023-05-29T11:01:47.680Z,23.05
2023-05-29T11:05:08.463Z,23.07
2023-05-29T11:08:35.870Z,23.34
2023-05-29T11:11:43.120Z,23.54
2023-05-29T11:14:53.250Z,23.63
2023-05-29T11:18:09.270Z,23.72
2023-05-29T11:21:26.633Z,23.76
2023-05-29T11:24:31.167Z,23.92
2023-05-29T11:27:36.784Z,23.95
2023-05-29T11:30:44.797Z,23.48
2023-05-29T11:33:51.766Z,23.62
2023-05-29T11:36:58.576Z,23.73
2023-05-29T11:40:06.659Z,23.34
2023-05-29T11:43:10.783Z,23.30
2023-05-29T11:46:19.729Z,23.30
2023-05-29T11:49:30.433Z,23.07
2023-05-29T11:52:36.734Z,23.26
2023-05-29T11:55:43.136Z,23.26
2023-05-29T11:58:49.255Z,23.25
2023-05-29T12:01:52.944Z,23.44
2023-05-29T12:05:03.993Z,23.76
2023-05-29T12:08:11.527Z,23.83
2023-05-29T12:11:15.632Z,23.48
2023-05-29T12:14:19.245Z,23.64
2023-05-29T12:17:23.503Z,23.89
2023-05-29T12:20:28.529Z,23.92
2023-05-29T12:23:33.990Z,24.07
2023-05-29T12:26:38.057Z,24.14
2023-05-29T12:29:42.942Z,24.38
2023-05-29T12:32:48.535Z,24.42
2023-05-29T12:35:52.776Z,24.36
2023-05-29T12:38:59.140Z,23.83
2023-05-29T12:42:03.568Z,24.04
2023-05-29T12:45:09.395Z,24.26
2023-05-29T12:48:13.430Z,24.28
2023-05-29T12:51:17.259Z,24.15
2023-05-29T12:54:22.588Z,24.26
2023-05-29T12:57:26.503Z,24.20
2023-05-29T13:00:31.554Z,24.23
2023-05-29T13:03:35.380Z,24.32
2023-05-29T13:06:40.734Z,24.45
2023-05-29T13:09:45.943Z,24.07
2023-05-29T13:12:55.342Z,24.23
2023-05-29T13:15:59.428Z,23.86
2023-05-29T13:19:03.633Z,23.71
2023-05-29T13:22:07.917Z,23.37
2023-05-29T13:25:15.533Z,23.05
2023-05-29T13:28:19.709Z,23.26
2023-05-29T13:31:24.198Z,23.61
2023-05-29T13:34:29.955Z,23.52
2023-05-29T13:37:34.377Z,23.83
2023-05-29T13:40:39.619Z,23.75
2023-05-29T13:43:45.199Z,23.27
2023-05-29T13:46:48.954Z,23.54
2023-05-29T13:49:52.893Z,23.82
2023-05-29T13:52:56.790Z,23.90
2023-05-29T13:56:02.451Z,24.16
2023-05-29T13:59:07.203Z,23.49
2023-05-29T14:02:11.193Z,23.67
2023-05-29T14:05:15.062Z,23.48
2023-05-29T14:08:19.725Z,22.43
2023-05-29T14:11:30.407Z,22.07
2023-05-29T14:14:40.357Z,22.27
2023-05-29T14:17:45.315Z,22.15
2023-05-29T14:20:50.173Z,20.52
2023-05-29T14:23:54.184Z,21.02
2023-05-29T14:27:02.145Z,20.78
2023-05-29T14:30:12.053Z,20.59
2023-05-29T14:33:16.074Z,20.41
2023-05-29T14:36:19.801Z,20.61
2023-05-29T14:39:25.164Z,20.54
2023-05-29T14:42:30.406Z,20.62
2023-05-29T14:45:34.833Z,20.17
2023-05-29T14:48:38.532Z,20.28
2023-05-29T14:51:43.908Z,20.24
2023-05-29T14:54:47.505Z,20.14
2023-05-29T14:57:53.127Z,20.36
2023-05-29T15:00:56.634Z,20.43
2023-05-29T15:04:01.445Z,20.46
2023-05-29T15:07:07.512Z,20.46
2023-05-29T15:10:13.199Z,20.58
2023-05-29T15:13:18.149Z,20.85
2023-05-29T15:16:22.333Z,20.90
2023-05-29T15:19:26.107Z,20.85
2023-05-29T15:22:32.127Z,21.14
2023-05-29T15:25:35.961Z,21.15
2023-05-29T15:28:42.880Z,21.25
2023-05-29T15:31:46.857Z,21.21
2023-05-29T15:34:53.574Z,21.22
2023-05-29T15:37:57.215Z,21.29
2023-05-29T15:41:04.206Z,21.27
2023-05-29T15:44:09.362Z,21.24
2023-05-29T15:47:13.740Z,21.32
2023-05-29T15:50:20.297Z,21.36
2023-05-29T15:53:24.191Z,21.22
2023-05-29T15:56:29.833Z,21.39
2023-05-29T15:59:36.063Z,21.56
2023-05-29T16:02:42.692Z,21.47
2023-05-29T16:05:47.197Z,21.55
2023-05-29T16:08:52.093Z,21.55
2023-05-29T16:11:56.825Z,21.47
2023-05-29T16:15:05.153Z,21.43
2023-05-29T16:18:10.129Z,21.22
2023-05-29T16:21:13.921Z,21.20
2023-05-29T16:24:18.320Z,21.10
2023-05-29T16:27:21.929Z,21.16
2023-05-29T16:30:27.665Z,21.11
2023-05-29T16:33:31.345Z,20.86
2023-05-29T16:39:39.089Z,20.77
2023-05-29T16:42:43.064Z,20.77
2023-05-29T16:45:48.513Z,20.88
2023-05-29T16:51:56.762Z,20.60
2023-05-29T16:55:02.954Z,20.58
2023-05-29T16:58:10.286Z,20.60
2023-05-29T17:01:17.627Z,20.54
2023-05-29T17:04:21.488Z,20.51
2023-05-29T17:07:26.616Z,20.53
2023-05-29T17:10:35.179Z,20.57
2023-05-29T17:13:39.272Z,20.39
2023-05-29T17:16:44.408Z,20.22
2023-05-29T17:19:48.398Z,20.33
2023-05-29T17:22:52.479Z,20.27
2023-05-29T17:26:01.298Z,20.19
2023-05-29T17:29:05.951Z,20.20
2023-05-29T17:32:11.658Z,20.24
2023-05-29T17:35:20.644Z,20.31
2023-05-29T17:38:25.599Z,20.27
2023-05-29T17:41:29.048Z,20.26
2023-05-29T17:44:32.946Z,20.13
2023-05-29T17:47:38.046Z,20.19
2023-05-29T17:50:42.962Z,20.05
2023-05-29T17:53:46.522Z,20.13
2023-05-29T17:56:50.398Z,20.09
2023-05-29T17:59:54.704Z,19.92
2023-05-29T18:03:00.440Z,19.91
2023-05-29T18:06:06.918Z,19.95
2023-05-29T18:09:11.803Z,19.68
2023-05-29T18:12:15.504Z,19.67
2023-05-29T18:15:21.187Z,19.65
2023-05-29T18:18:27.160Z,19.61
2023-05-29T18:21:31.227Z,19.63
2023-05-29T18:24:35.002Z,19.67
2023-05-29T18:27:39.312Z,19.62
2023-05-29T18:30:43.740Z,19.51
2023-05-29T18:33:52.620Z,19.41
2023-05-29T18:36:56.513Z,19.31
2023-05-29T18:40:00.597Z,19.30
2023-05-29T18:43:04.830Z,19.24
2023-05-29T18:46:09.422Z,19.15
2023-05-29T18:49:14.641Z,19.18
2023-05-29T18:52:19.116Z,19.04
2023-05-29T18:55:22.969Z,18.91
2023-05-29T18:58:30.103Z,18.71
2023-05-29T19:01:34.381Z,18.62
2023-05-29T19:04:40.714Z,18.58
2023-05-29T19:07:44.405Z,18.59
2023-05-29T19:10:48.415Z,18.41
2023-05-29T19:13:52.828Z,18.50
2023-05-29T19:16:56.899Z,18.56
2023-05-29T19:20:03.157Z,18.56
2023-05-29T19:23:07.803Z,18.32
2023-05-29T19:26:11.393Z,18.11
2023-05-29T19:29:18.649Z,18.17
2023-05-29T19:32:24.503Z,18.14
2023-05-29T19:35:30.116Z,18.13
2023-05-29T19:38:34.053Z,18.24
2023-05-29T19:41:39.421Z,18.26
2023-05-29T19:44:45.371Z,18.25
2023-05-29T19:47:49.574Z,18.26
2023-05-29T19:50:56.158Z,18.31
2023-05-29T19:54:00.327Z,18.19
2023-05-29T19:57:04.476Z,18.18
2023-05-29T20:00:10.394Z,18.22
2023-05-29T20:03:17.635Z,18.03
2023-05-29T20:06:24.903Z,18.01
2023-05-29T20:09:28.787Z,17.96
2023-05-29T20:12:32.781Z,18.00
2023-05-29T20:15:36.519Z,17.76
2023-05-29T20:18:40.493Z,17.83
2023-05-29T20:21:45.610Z,17.94
2023-05-29T20:24:49.601Z,17.98
2023-05-29T20:27:53.392Z,18.03
2023-05-29T20:30:58.015Z,17.93
2023-05-29T20:34:02.200Z,18.10
2023-05-29T20:37:08.119Z,18.13
2023-05-29T20:40:14.801Z,18.00
2023-05-29T20:43:23.178Z,18.21
2023-05-29T20:46:27.772Z,18.30
2023-05-29T20:49:31.912Z,18.38
2023-05-29T20:52:36.939Z,18.50
2023-05-29T20:55:40.977Z,18.47
2023-05-29T20:58:44.783Z,18.19
2023-05-29T21:01:50.746Z,18.10
2023-05-29T21:04:55.602Z,18.04
2023-05-29T21:08:01.050Z,18.10
2023-05-29T21:11:06.445Z,17.95
2023-05-29T21:14:13.232Z,17.44
2023-05-29T21:17:18.755Z,17.32
2023-05-29T21:20:25.203Z,17.15
2023-05-29T21:23:32.112Z,17.31
2023-05-29T21:26:36.860Z,17.39
2023-05-29T21:29:45.701Z,17.36
2023-05-29T21:32:54.617Z,17.23
2023-05-29T21:35:58.650Z,17.18
2023-05-29T21:39:09.129Z,17.14
2023-05-29T21:42:13.084Z,17.13
2023-05-29T21:45:18.613Z,17.44
2023-05-29T21:48:30.184Z,17.30
2023-05-29T21:51:39.140Z,17.47
2023-05-29T21:54:44.588Z,17.31
2023-05-29T21:57:49.357Z,17.27
2023-05-29T22:00:54.470Z,17.50
2023-05-29T22:04:06.916Z,17.29
2023-05-29T22:07:15.880Z,17.51
2023-05-29T22:10:24.052Z,17.64
2023-05-29T22:13:28.796Z,17.61
2023-05-29T22:16:33.918Z,17.63
2023-05-29T22:19:41.035Z,17.75
2023-05-29T22:22:46.185Z,17.78
2023-05-29T22:25:51.561Z,17.88
2023-05-29T22:28:56.800Z,17.87
2023-05-29T22:32:00.993Z,17.70
2023-05-29T22:35:22.922Z,17.20
2023-05-29T22:38:28.119Z,17.39
2023-05-29T22:41:33.517Z,17.30
2023-05-29T22:44:37.177Z,17.55
2023-05-29T22:47:41.061Z,17.60
2023-05-29T22:50:45.666Z,17.54
2023-05-29T22:53:50.551Z,17.46
2023-05-29T22:56:55.973Z,17.32
2023-05-29T22:59:59.927Z,17.55
2023-05-29T23:03:03.716Z,17.37
2023-05-29T23:06:07.978Z,17.19
2023-05-29T23:09:12.051Z,17.37
2023-05-29T23:12:18.051Z,17.53
2023-05-29T23:15:22.497Z,17.68
2023-05-29T23:18:26.799Z,17.70
2023-05-29T23:21:31.160Z,17.70
2023-05-29T23:24:37.410Z,17.76
2023-05-29T23:27:43.235Z,17.06
2023-05-29T23:30:47.437Z,17.40
2023-05-29T23:33:51.126Z,17.45
2023-05-29T23:36:54.989Z,17.57
2023-05-29T23:39:58.772Z,17.69
2023-05-29T23:43:04.297Z,17.78
2023-05-29T23:46:07.948Z,17.71
2023-05-29T23:49:12.353Z,17.93
2023-05-29T23:52:16.105Z,17.95
2023-05-29T23:55:20.077Z,17.82
2023-05-29T23:58:25.270Z,17.99
